Time;durP1;ratioP1;P1;durP2;ratioP2;P2;SDS_P1;SDS_P2;PMS_P1;PMS_P2;Temp;Humidity;BMP_temperature;BMP_pressure;BME280_temperature;BME280_humidity;BME280_pressure;Samples;Min_cycle;Max_cycle;Signal;HPM_P1;HPM_P2
2022/02/11 00:01:03;;;;;;;3.35;0.90;;;4.90;99.90;;;;;;5062935;28;20031;-59
2022/02/11 00:08:39;;;;;;;3.67;0.95;;;4.80;99.90;;;;;;5058415;28;20544;-59
2022/02/11 00:11:05;;;;;;;6.93;1.52;;;4.70;99.90;;;;;;5067419;28;20025;-59
2022/02/11 00:13:30;;;;;;;6.10;1.73;;;4.70;99.90;;;;;;5060590;28;20025;-59
2022/02/11 00:15:56;;;;;;;5.78;1.30;;;4.70;99.90;;;;;;5063248;28;20111;-59
2022/02/11 00:18:22;;;;;;;9.25;1.75;;;4.70;99.90;;;;;;5060734;28;20140;-59
2022/02/11 00:20:49;;;;;;;5.75;1.40;;;4.70;99.90;;;;;;5060855;28;20496;-59
2022/02/11 00:23:19;;;;;;;5.00;1.55;;;4.70;99.90;;;;;;5063239;28;20113;-59
2022/02/11 00:25:52;;;;;;;4.88;1.67;;;4.70;99.90;;;;;;5060232;28;20115;-59
2022/02/11 00:29:21;;;;;;;8.23;1.88;;;4.60;99.90;;;;;;5066112;28;20043;-59
2022/02/11 00:34:02;;;;;;;9.82;2.13;;;4.50;99.90;;;;;;5062501;28;20081;-59
2022/02/11 00:36:34;;;;;;;4.95;1.50;;;4.50;99.90;;;;;;5064069;28;20029;-59
2022/02/11 00:42:31;;;;;;;5.10;2.17;;;4.40;99.90;;;;;;5060998;28;20028;-59
2022/02/11 00:45:27;;;;;;;7.50;1.60;;;4.40;99.90;;;;;;5067235;28;20131;-59
2022/02/11 00:53:27;;;;;;;8.60;2.10;;;4.40;99.90;;;;;;5063492;28;20071;-59
2022/02/11 01:03:56;;;;;;;4.15;1.23;;;4.30;99.90;;;;;;5072226;28;20450;-59
2022/02/11 01:06:23;;;;;;;5.35;2.03;;;4.30;99.90;;;;;;5070332;28;20063;-59
2022/02/11 01:08:48;;;;;;;5.93;1.45;;;4.30;99.90;;;;;;5066952;28;20021;-59
2022/02/11 01:11:21;;;;;;;5.65;1.85;;;4.30;99.90;;;;;;5067857;28;20457;-60
2022/02/11 01:13:46;;;;;;;5.85;1.42;;;4.30;99.90;;;;;;5052219;28;20016;-59
2022/02/11 01:16:18;;;;;;;8.27;1.88;;;4.30;99.90;;;;;;5069428;28;20021;-59
2022/02/11 01:18:50;;;;;;;9.13;1.83;;;4.30;99.90;;;;;;5061627;28;20037;-59
2022/02/11 01:21:23;;;;;;;9.88;1.88;;;4.30;99.90;;;;;;5067974;28;20020;-59
2022/02/11 01:24:02;;;;;;;9.05;2.40;;;4.20;99.90;;;;;;5067142;28;20071;-59
2022/02/11 01:26:51;;;;;;;5.88;1.38;;;4.20;99.90;;;;;;5071041;28;20057;-59
2022/02/11 01:29:52;;;;;;;10.15;1.70;;;4.20;99.90;;;;;;5066915;28;20035;-59
2022/02/11 01:35:14;;;;;;;8.73;1.52;;;4.20;99.90;;;;;;5064111;28;20380;-59
2022/02/11 01:37:54;;;;;;;9.70;2.00;;;4.30;99.90;;;;;;5066434;28;20024;-59
2022/02/11 01:41:18;;;;;;;;;;;4.30;99.90;;;;;;5068752;28;20089;-59
2022/02/11 01:51:29;;;;;;;7.93;1.45;;;4.30;99.90;;;;;;5070548;28;20016;-58
2022/02/11 01:54:13;;;;;;;6.03;1.20;;;4.30;99.90;;;;;;5079577;28;20024;-59
2022/02/11 01:56:57;;;;;;;7.80;1.45;;;4.30;99.90;;;;;;5068876;28;20372;-59
2022/02/11 02:21:26;;;;;;;9.88;1.45;;;4.50;99.90;;;;;;5065787;28;20507;-59
2022/02/11 02:26:24;;;;;;;8.02;1.63;;;4.50;99.90;;;;;;5068180;28;20020;-59
2022/02/11 02:43:30;;;;;;;5.22;0.90;;;4.70;99.90;;;;;;5068210;28;20098;-59
2022/02/11 02:59:16;;;;;;;;;;;4.70;99.90;;;;;;5061503;28;20037;-59
2022/02/11 03:01:51;;;;;;;6.30;1.45;;;4.70;99.90;;;;;;5061855;28;19973;-59
2022/02/11 04:22:56;;;;;;;14.25;3.35;;;5.40;99.90;;;;;;5066881;28;20082;-59
2022/02/11 04:26:00;;;;;;;15.43;2.13;;;5.40;99.90;;;;;;5065743;28;20021;-59
2022/02/11 04:55:22;;;;;;;13.85;2.00;;;5.50;99.90;;;;;;5035970;28;20025;-59
2022/02/11 05:00:33;;;;;;;13.23;2.88;;;5.50;99.90;;;;;;5060349;28;20063;-59
2022/02/11 05:02:59;;;;;;;18.98;2.58;;;5.50;99.90;;;;;;5063795;28;20440;-59
2022/02/11 05:05:25;;;;;;;15.32;2.85;;;5.50;99.90;;;;;;5063232;28;20388;-59
2022/02/11 05:07:51;;;;;;;23.15;3.38;;;5.50;99.90;;;;;;5061057;28;20491;-59
2022/02/11 05:10:16;;;;;;;16.10;2.75;;;5.50;99.90;;;;;;5062024;28;20041;-59
2022/02/11 05:12:43;;;;;;;13.50;2.40;;;5.50;99.90;;;;;;5068218;28;20029;-59
2022/02/11 05:15:10;;;;;;;17.67;1.88;;;5.50;99.90;;;;;;5062384;28;20028;-59
2022/02/11 05:17:37;;;;;;;14.20;1.90;;;5.40;99.90;;;;;;5062161;28;20501;-59
2022/02/11 05:20:04;;;;;;;8.82;1.35;;;5.40;99.90;;;;;;5064688;28;20123;-59
2022/02/11 05:22:30;;;;;;;12.25;1.75;;;5.50;99.90;;;;;;5063877;28;20048;-59
2022/02/11 05:24:56;;;;;;;15.52;2.25;;;5.40;99.90;;;;;;5062482;28;20048;-59
2022/02/11 05:27:22;;;;;;;16.40;1.90;;;5.50;99.90;;;;;;5057095;28;20040;-59
2022/02/11 05:29:47;;;;;;;11.35;2.85;;;5.50;99.90;;;;;;5065349;28;20025;-59
2022/02/11 05:32:13;;;;;;;14.00;2.17;;;5.50;99.90;;;;;;5065278;28;20066;-59
2022/02/11 05:34:38;;;;;;;15.32;2.35;;;5.50;99.90;;;;;;5065033;28;20033;-59
2022/02/11 05:37:04;;;;;;;18.83;3.70;;;5.50;99.90;;;;;;5067502;28;20028;-59
2022/02/11 05:39:29;;;;;;;16.70;3.00;;;5.50;99.90;;;;;;5064519;28;20024;-59
2022/02/11 05:41:55;;;;;;;14.63;3.25;;;5.50;99.90;;;;;;5066453;28;20016;-59
2022/02/11 05:44:20;;;;;;;15.20;2.20;;;5.60;99.90;;;;;;5071015;28;20085;-59
2022/02/11 05:46:46;;;;;;;15.70;2.05;;;5.50;99.90;;;;;;5061931;28;20077;-59
2022/02/11 05:49:11;;;;;;;12.55;1.98;;;5.50;99.90;;;;;;5070115;28;20028;-59
2022/02/11 05:52:25;;;;;;;14.25;2.08;;;5.50;99.90;;;;;;5068627;28;20139;-59
2022/02/11 05:54:51;;;;;;;8.35;1.67;;;5.60;99.90;;;;;;5069882;28;20447;-59
2022/02/11 05:57:16;;;;;;;9.10;1.98;;;5.50;99.90;;;;;;5071557;28;20530;-59
2022/02/11 05:59:42;;;;;;;10.25;2.33;;;5.50;99.90;;;;;;5063119;28;20024;-59
2022/02/11 06:02:08;;;;;;;11.65;1.60;;;5.50;99.90;;;;;;5064137;28;20051;-59
2022/02/11 06:04:33;;;;;;;14.45;1.88;;;5.60;99.90;;;;;;5067626;28;20086;-59
2022/02/11 06:07:04;;;;;;;8.68;1.52;;;5.60;99.90;;;;;;5067511;28;20021;-59
2022/02/11 06:09:30;;;;;;;11.18;1.70;;;5.60;99.90;;;;;;5065389;28;20024;-59
2022/02/11 06:11:55;;;;;;;13.07;1.50;;;5.60;99.90;;;;;;5062696;28;20025;-59
2022/02/11 06:14:21;;;;;;;9.07;1.70;;;5.60;99.90;;;;;;5062632;28;20450;-60
2022/02/11 06:17:01;;;;;;;16.25;2.25;;;5.60;99.90;;;;;;5068292;28;20035;-59
2022/02/11 06:19:39;;;;;;;13.15;1.63;;;5.70;99.90;;;;;;5068848;28;20045;-59
2022/02/11 06:22:05;;;;;;;7.60;0.90;;;5.60;99.90;;;;;;5068897;28;20067;-59
2022/02/11 06:24:30;;;;;;;10.30;1.35;;;5.60;99.90;;;;;;5070844;28;20036;-59
2022/02/11 06:26:56;;;;;;;12.27;1.75;;;5.50;99.90;;;;;;5070918;28;20043;-59
2022/02/11 06:29:21;;;;;;;8.88;0.93;;;5.40;99.90;;;;;;5065293;28;20055;-59
2022/02/11 06:31:47;;;;;;;4.45;0.60;;;5.40;99.90;;;;;;5070691;28;20105;-59
2022/02/11 06:34:12;;;;;;;4.95;0.80;;;5.30;99.90;;;;;;5060947;28;20037;-59
2022/02/11 06:36:38;;;;;;;6.55;0.82;;;5.20;99.90;;;;;;5052847;28;20085;-59
2022/02/11 06:39:03;;;;;;;8.93;1.30;;;5.20;99.90;;;;;;5053775;28;20108;-59
2022/02/11 06:41:29;;;;;;;8.05;0.82;;;5.10;99.90;;;;;;5064204;28;20089;-59
2022/02/11 06:43:54;;;;;;;6.13;0.82;;;5.00;99.90;;;;;;5074125;28;20029;-59
2022/02/11 06:46:21;;;;;;;8.52;0.70;;;5.00;99.90;;;;;;5073223;28;20491;-59
2022/02/11 06:48:48;;;;;;;6.63;1.13;;;5.00;99.90;;;;;;5074185;28;20495;-59
2022/02/11 06:51:14;;;;;;;9.55;1.27;;;4.90;99.90;;;;;;5074086;28;20021;-59
2022/02/11 06:53:40;;;;;;;5.57;0.90;;;4.90;99.90;;;;;;5074236;28;20032;-59
2022/02/11 06:56:23;;;;;;;8.85;1.17;;;4.90;99.90;;;;;;5089650;28;20028;-59
2022/02/11 06:58:52;;;;;;;9.38;0.65;;;4.90;99.90;;;;;;5074324;28;20052;-59
2022/02/11 07:01:19;;;;;;;10.45;1.25;;;4.80;99.90;;;;;;5073833;28;20020;-59
2022/02/11 07:03:44;;;;;;;10.27;1.58;;;4.80;99.90;;;;;;5073940;28;20070;-59
2022/02/11 07:06:10;;;;;;;13.30;0.98;;;4.80;99.90;;;;;;5073624;28;20032;-59
2022/02/11 07:08:35;;;;;;;8.38;1.10;;;4.80;99.90;;;;;;5073587;28;20028;-59
2022/02/11 07:11:02;;;;;;;11.15;1.17;;;4.70;99.90;;;;;;5061619;28;20025;-59
2022/02/11 07:13:28;;;;;;;9.95;1.38;;;4.70;99.90;;;;;;5072143;28;20017;-59
2022/02/11 07:15:53;;;;;;;9.23;1.02;;;4.70;99.90;;;;;;5072041;28;20024;-59
2022/02/11 07:18:19;;;;;;;7.68;1.20;;;4.70;99.90;;;;;;5071664;28;20063;-59
2022/02/11 07:21:42;;;;;;;;;;;;;;;;;;;;;
2022/02/11 07:24:08;;;;;;;7.90;1.70;;;4.80;99.90;;;;;;5073239;28;20031;-59
2022/02/11 07:26:33;;;;;;;8.88;1.33;;;4.70;99.90;;;;;;5073580;28;20091;-59
2022/02/11 07:28:59;;;;;;;11.55;1.55;;;4.70;99.90;;;;;;5089187;28;20491;-59
2022/02/11 07:31:25;;;;;;;14.35;2.20;;;4.70;99.90;;;;;;5073483;28;20028;-59
2022/02/11 07:33:50;;;;;;;15.98;1.63;;;4.70;99.90;;;;;;5072755;28;20029;-59
2022/02/11 07:36:16;;;;;;;12.65;1.92;;;4.70;99.90;;;;;;5071449;28;20031;-59
2022/02/11 07:38:41;;;;;;;10.80;1.95;;;4.70;99.90;;;;;;5071677;28;20028;-59
2022/02/11 07:41:07;;;;;;;18.48;2.92;;;4.80;99.90;;;;;;5071579;28;20035;-59
2022/02/11 07:43:32;;;;;;;12.27;2.15;;;4.80;99.90;;;;;;5071671;28;20504;-59
2022/02/11 07:45:58;;;;;;;12.40;1.55;;;4.80;99.90;;;;;;5068680;28;20032;-59
2022/02/11 07:48:24;;;;;;;17.00;2.15;;;4.90;99.90;;;;;;5070406;28;20017;-59
2022/02/11 07:50:51;;;;;;;19.40;2.50;;;4.90;99.90;;;;;;5073127;28;20025;-59
2022/02/11 07:53:18;;;;;;;15.43;1.95;;;5.00;99.90;;;;;;5072275;28;20481;-59
2022/02/11 07:55:44;;;;;;;10.10;1.63;;;5.00;99.90;;;;;;5072928;28;20064;-59
2022/02/11 07:58:09;;;;;;;15.45;1.90;;;5.00;99.90;;;;;;5072289;28;20105;-59
2022/02/11 08:00:35;;;;;;;7.55;1.45;;;5.00;99.90;;;;;;5071837;28;20033;-59
2022/02/11 08:03:00;;;;;;;12.00;1.60;;;5.10;99.90;;;;;;5072917;28;20033;-59
2022/02/11 08:05:26;;;;;;;9.48;1.00;;;5.10;99.90;;;;;;5072698;28;20024;-59
2022/02/11 08:07:54;;;;;;;11.35;1.10;;;5.00;99.90;;;;;;5072880;28;20024;-59
2022/02/11 08:10:30;;;;;;;7.35;1.42;;;5.10;99.90;;;;;;5071286;28;20082;-59
2022/02/11 08:12:57;;;;;;;9.10;1.50;;;5.10;99.90;;;;;;5065138;28;20032;-59
2022/02/11 08:15:23;;;;;;;7.72;1.38;;;5.00;99.90;;;;;;5065853;28;20570;-59
2022/02/11 08:17:48;;;;;;;13.25;2.78;;;5.00;99.90;;;;;;5065537;28;20052;-59
2022/02/11 08:20:15;;;;;;;11.10;1.80;;;5.10;99.90;;;;;;5066312;28;20037;-59
2022/02/11 08:22:41;;;;;;;10.13;2.10;;;5.00;99.90;;;;;;5066992;28;20036;-59
2022/02/11 08:25:06;;;;;;;11.70;1.65;;;5.10;99.90;;;;;;5066620;28;20039;-59
2022/02/11 08:27:32;;;;;;;20.88;2.67;;;5.10;99.90;;;;;;5066335;28;20044;-59
2022/02/11 08:29:59;;;;;;;12.93;1.83;;;5.10;99.90;;;;;;5067246;28;20056;-59
2022/02/11 08:32:29;;;;;;;11.20;1.80;;;5.20;99.90;;;;;;5065301;28;20195;-60
2022/02/11 08:34:56;;;;;;;11.23;2.40;;;5.20;99.90;;;;;;5046758;28;20027;-59
2022/02/11 08:37:22;;;;;;;13.43;1.63;;;5.20;99.90;;;;;;5065713;28;20029;-59
2022/02/11 08:39:47;;;;;;;13.82;2.22;;;5.30;99.90;;;;;;5065690;28;20570;-59
2022/02/11 08:42:13;;;;;;;17.33;2.72;;;5.30;99.90;;;;;;5062833;28;20485;-59
2022/02/11 08:44:39;;;;;;;11.10;1.88;;;5.30;99.90;;;;;;5049185;28;20473;-59
2022/02/11 08:47:04;;;;;;;15.13;1.85;;;5.30;99.90;;;;;;5048397;28;20037;-59
2022/02/11 08:49:31;;;;;;;15.15;2.58;;;5.40;99.80;;;;;;5048080;28;20333;-59
2022/02/11 08:51:56;;;;;;;17.15;2.78;;;5.40;99.70;;;;;;5045605;28;20029;-59
2022/02/11 08:54:22;;;;;;;15.75;2.08;;;5.50;99.60;;;;;;5048239;28;20378;-59
2022/02/11 08:56:48;;;;;;;12.25;1.98;;;5.60;99.40;;;;;;5048776;28;20098;-59
2022/02/11 08:59:14;;;;;;;13.77;2.00;;;5.60;99.30;;;;;;5058060;28;20459;-59
2022/02/11 09:01:39;;;;;;;12.70;1.63;;;5.70;99.20;;;;;;5048786;28;20133;-59
2022/02/11 09:04:05;;;;;;;10.40;2.08;;;5.70;99.20;;;;;;5048876;28;20025;-59
2022/02/11 09:06:30;;;;;;;13.65;2.15;;;5.80;99.10;;;;;;5049175;28;20065;-59
2022/02/11 09:08:56;;;;;;;14.73;1.63;;;5.80;99.00;;;;;;5048966;28;20057;-59
2022/02/11 09:11:21;;;;;;;14.18;1.75;;;5.80;98.90;;;;;;5052961;28;20437;-59
2022/02/11 09:13:48;;;;;;;12.73;2.03;;;5.80;98.90;;;;;;5051451;28;20064;-59
2022/02/11 09:16:13;;;;;;;15.52;1.90;;;5.80;98.90;;;;;;5052751;28;20114;-59
2022/02/11 09:18:40;;;;;;;9.05;1.23;;;5.90;99.00;;;;;;5052836;28;20088;-59
2022/02/11 09:21:06;;;;;;;14.75;2.53;;;5.90;98.90;;;;;;5052782;28;20485;-59
2022/02/11 09:23:39;;;;;;;12.75;1.85;;;6.00;98.90;;;;;;5052831;28;20035;-59
2022/02/11 09:26:05;;;;;;;13.02;2.80;;;6.00;98.90;;;;;;5052859;28;20107;-59
2022/02/11 09:28:32;;;;;;;13.20;1.60;;;6.10;99.00;;;;;;5068278;28;20235;-59
2022/02/11 09:30:57;;;;;;;15.60;1.98;;;6.20;99.00;;;;;;5052850;28;20513;-59
2022/02/11 09:33:23;;;;;;;15.18;2.08;;;6.30;98.80;;;;;;5052779;28;20037;-59
2022/02/11 09:35:49;;;;;;;11.48;2.72;;;6.40;98.70;;;;;;5052915;28;20454;-59
2022/02/11 09:38:16;;;;;;;11.15;2.13;;;6.50;98.60;;;;;;5052330;28;20024;-59
2022/02/11 09:40:46;;;;;;;8.93;1.50;;;6.70;98.50;;;;;;5052492;28;20028;-59
2022/02/11 09:43:12;;;;;;;11.98;1.88;;;6.80;98.30;;;;;;5052566;28;20530;-59
2022/02/11 09:45:41;;;;;;;16.05;1.85;;;6.70;98.10;;;;;;5052185;28;20043;-59
2022/02/11 09:48:06;;;;;;;11.77;1.83;;;6.80;98.00;;;;;;5052526;28;20496;-59
2022/02/11 09:50:33;;;;;;;12.93;2.20;;;6.90;97.90;;;;;;5052444;28;20032;-59
2022/02/11 09:52:58;;;;;;;13.85;3.25;;;7.10;97.70;;;;;;5052193;28;20500;-59
2022/02/11 09:55:32;;;;;;;16.13;1.83;;;7.20;97.40;;;;;;5052360;28;20509;-59
2022/02/11 09:58:08;;;;;;;16.92;2.78;;;7.30;97.10;;;;;;5052850;28;20485;-59
2022/02/11 10:00:36;;;;;;;13.10;2.05;;;7.50;96.70;;;;;;5052081;28;20078;-59
2022/02/11 10:03:14;;;;;;;10.48;1.52;;;7.50;96.20;;;;;;5052411;28;20029;-59
2022/02/11 10:06:06;;;;;;;13.95;2.20;;;7.70;95.80;;;;;;5051958;28;20393;-59
2022/02/11 10:08:34;;;;;;;10.13;1.60;;;7.90;95.10;;;;;;5052104;28;20047;-59
2022/02/11 10:11:01;;;;;;;9.02;1.65;;;8.20;94.70;;;;;;5051814;28;20040;-59
2022/02/11 10:13:30;;;;;;;11.93;1.70;;;8.40;94.40;;;;;;5052197;28;20560;-59
2022/02/11 10:15:58;;;;;;;8.10;1.20;;;8.60;93.40;;;;;;5051588;28;20054;-60
2022/02/11 10:18:30;;;;;;;7.72;1.35;;;8.80;93.30;;;;;;5062378;28;20070;-59
2022/02/11 10:21:01;;;;;;;8.07;1.38;;;9.10;93.30;;;;;;5068767;28;20078;-59
2022/02/11 10:23:31;;;;;;;5.63;1.17;;;9.50;93.00;;;;;;5060763;28;20040;-59
2022/02/11 10:26:06;;;;;;;8.20;1.55;;;10.10;93.50;;;;;;5065893;28;20150;-60
2022/02/11 10:28:43;;;;;;;8.15;1.75;;;11.20;91.20;;;;;;5068435;28;20029;-60
2022/02/11 10:31:19;;;;;;;11.02;1.38;;;12.80;85.20;;;;;;5070608;28;20177;-60
2022/02/11 10:33:59;;;;;;;7.75;2.10;;;14.30;79.70;;;;;;5071852;28;20095;-60
2022/02/11 10:36:25;;;;;;;8.05;1.55;;;15.50;73.70;;;;;;5071515;28;20021;-60
2022/02/11 10:39:11;;;;;;;4.90;0.95;;;16.50;67.50;;;;;;5070263;28;20021;-60
2022/02/11 10:41:54;;;;;;;7.85;1.42;;;17.00;65.40;;;;;;5071382;28;20073;-60
2022/02/11 10:44:26;;;;;;;9.32;2.08;;;16.50;61.60;;;;;;5070717;28;20024;-61
2022/02/11 10:46:55;;;;;;;9.90;1.60;;;15.40;60.30;;;;;;5069561;28;20024;-60
2022/02/11 10:49:35;;;;;;;8.53;1.70;;;14.30;59.20;;;;;;5070592;28;20500;-60
2022/02/11 10:52:22;;;;;;;7.82;1.48;;;13.40;60.40;;;;;;5070260;28;20332;-60
2022/02/11 10:54:52;;;;;;;7.85;1.30;;;12.70;60.80;;;;;;5070743;28;20032;-60
2022/02/11 10:57:27;;;;;;;9.00;2.63;;;12.10;59.40;;;;;;5071051;28;20456;-60
2022/02/11 11:00:07;;;;;;;8.32;2.30;;;11.60;58.50;;;;;;5070940;28;20048;-59
2022/02/11 11:02:33;;;;;;;;;;;11.30;59.90;;;;;;5069936;28;20034;-59
2022/02/11 11:04:58;;;;;;;7.25;1.38;;;11.00;59.30;;;;;;5069130;28;19916;-60
2022/02/11 11:07:26;;;;;;;7.68;1.10;;;10.90;60.10;;;;;;5070768;28;20021;-59
2022/02/11 11:09:53;;;;;;;5.15;1.02;;;11.00;59.90;;;;;;5070343;28;20020;-59
2022/02/11 11:12:23;;;;;;;3.80;0.60;;;11.20;60.30;;;;;;5070663;28;20098;-60
2022/02/11 11:14:54;;;;;;;8.15;0.90;;;13.90;59.50;;;;;;5070448;28;20042;-60
2022/02/11 11:17:20;;;;;;;5.97;0.82;;;17.00;52.20;;;;;;5070561;28;20035;-60
2022/02/11 11:19:48;;;;;;;7.05;1.70;;;19.10;48.80;;;;;;5068911;28;20484;-60
2022/02/11 11:22:43;;;;;;;3.90;0.98;;;20.30;47.70;;;;;;5068077;28;20056;-61
2022/02/11 11:25:09;;;;;;;5.78;1.10;;;21.30;45.60;;;;;;5068526;28;20535;-58
2022/02/11 11:27:43;;;;;;;9.43;1.00;;;22.20;45.10;;;;;;5069551;28;20145;-58
2022/02/11 11:30:37;;;;;;;4.80;1.30;;;23.10;44.40;;;;;;5059901;28;20111;-58
2022/02/11 11:33:08;;;;;;;6.35;1.23;;;23.80;41.50;;;;;;5069030;28;20024;-58
2022/02/11 11:36:09;;;;;;;6.28;1.38;;;25.20;39.80;;;;;;5068895;28;20036;-58
2022/02/11 11:38:38;;;;;;;6.80;1.33;;;26.60;37.60;;;;;;5090715;28;20396;-59
2022/02/11 11:41:08;;;;;;;5.10;1.33;;;27.80;36.60;;;;;;5090606;28;20122;-58
2022/02/11 11:43:36;;;;;;;6.78;1.20;;;28.40;35.60;;;;;;5089249;28;20055;-58
2022/02/11 11:46:26;;;;;;;5.80;1.33;;;28.90;34.40;;;;;;5090540;28;20028;-58
2022/02/11 11:49:00;;;;;;;4.53;1.10;;;29.50;33.40;;;;;;5090121;28;20099;-58
2022/02/11 11:51:51;;;;;;;4.00;0.90;;;29.70;32.60;;;;;;5090095;28;20054;-58
2022/02/11 11:54:23;;;;;;;2.95;0.80;;;29.20;32.60;;;;;;5079323;28;20067;-58
2022/02/11 11:56:52;;;;;;;4.57;1.10;;;29.00;31.90;;;;;;5069166;28;20020;-59
2022/02/11 11:59:30;;;;;;;3.97;1.10;;;29.10;30.50;;;;;;5068320;28;20035;-59
2022/02/11 12:02:00;;;;;;;3.70;1.13;;;29.50;31.20;;;;;;5068560;28;20145;-59
2022/02/11 12:04:33;;;;;;;5.28;1.00;;;29.00;31.60;;;;;;5068932;28;20494;-59
2022/02/11 12:07:16;;;;;;;3.92;1.25;;;28.10;32.30;;;;;;5068883;28;20055;-59
2022/02/11 12:09:45;;;;;;;4.43;1.02;;;26.80;30.90;;;;;;5064415;28;20028;-58
2022/02/11 12:12:12;;;;;;;4.88;1.20;;;24.80;32.50;;;;;;5068835;28;20111;-59
2022/02/11 12:14:45;;;;;;;3.60;1.17;;;23.50;34.40;;;;;;5068480;28;20464;-58
2022/02/11 12:17:14;;;;;;;4.28;1.15;;;22.70;34.50;;;;;;5068527;28;20043;-58
2022/02/11 12:19:40;;;;;;;5.85;0.90;;;21.70;34.00;;;;;;5068248;28;20099;-58
2022/02/11 12:22:07;;;;;;;6.45;1.27;;;20.70;35.20;;;;;;5068214;28;20040;-58
2022/02/11 12:27:30;;;;;;;3.40;1.08;;;20.20;36.20;;;;;;5069902;28;20082;-58
2022/02/11 12:30:14;;;;;;;6.03;1.38;;;21.40;36.50;;;;;;5069581;28;20021;-58
2022/02/11 12:32:40;;;;;;;3.60;1.40;;;23.50;34.70;;;;;;5069522;28;20051;-58
2022/02/11 12:35:11;;;;;;;5.03;1.40;;;25.30;32.50;;;;;;5069524;28;20028;-59
2022/02/11 12:37:39;;;;;;;6.25;1.20;;;26.80;31.60;;;;;;5069426;28;20074;-59
2022/02/11 12:40:38;;;;;;;4.22;1.00;;;27.90;30.60;;;;;;5069335;28;20059;-59
2022/02/11 12:43:06;;;;;;;4.28;1.17;;;29.00;30.40;;;;;;5069754;28;20040;-59
2022/02/11 12:45:40;;;;;;;3.83;0.90;;;29.60;30.10;;;;;;5071900;28;20550;-59
2022/02/11 12:48:13;;;;;;;4.10;1.13;;;30.40;30.00;;;;;;5072008;28;20090;-59
2022/02/11 12:50:45;;;;;;;3.45;0.93;;;30.90;29.70;;;;;;5059574;28;20424;-59
2022/02/11 12:53:16;;;;;;;3.72;0.90;;;31.70;29.40;;;;;;5053589;28;20024;-60
2022/02/11 12:55:45;;;;;;;3.15;0.80;;;32.20;29.60;;;;;;5053162;28;20044;-59
2022/02/11 12:58:13;;;;;;;5.00;1.23;;;31.60;29.80;;;;;;5053442;28;20025;-60
2022/02/11 13:00:41;;;;;;;2.25;0.75;;;31.10;29.60;;;;;;5053074;28;20039;-59
2022/02/11 13:03:08;;;;;;;4.47;1.15;;;30.60;29.80;;;;;;5053263;28;20104;-59
2022/02/11 13:05:43;;;;;;;3.03;1.02;;;29.50;30.20;;;;;;5053169;28;20543;-59
2022/02/11 13:08:09;;;;;;;4.85;1.15;;;28.20;30.90;;;;;;5053150;28;20083;-59
2022/02/11 13:10:37;;;;;;;4.10;1.17;;;26.50;31.10;;;;;;5065544;28;20373;-59
2022/02/11 13:13:15;;;;;;;3.05;0.80;;;25.00;31.30;;;;;;5073155;28;20473;-59
2022/02/11 13:15:45;;;;;;;9.55;1.33;;;23.60;33.00;;;;;;5072555;28;20037;-59
2022/02/11 13:18:18;;;;;;;4.40;0.98;;;22.60;33.50;;;;;;5071447;28;20056;-59
2022/02/11 13:20:47;;;;;;;6.72;1.55;;;21.70;34.70;;;;;;5072762;28;20029;-58
2022/02/11 13:23:14;;;;;;;4.53;1.27;;;21.00;35.50;;;;;;5088240;28;20131;-59
2022/02/11 13:25:42;;;;;;;7.05;1.45;;;20.30;35.80;;;;;;5072055;28;20352;-59
2022/02/11 13:28:10;;;;;;;5.70;1.30;;;19.50;36.60;;;;;;5071406;28;20120;-58
2022/02/11 13:30:38;;;;;;;4.40;1.10;;;19.20;37.60;;;;;;5073256;28;20527;-59
2022/02/11 13:33:23;;;;;;;3.92;1.20;;;19.60;38.10;;;;;;5074897;28;20021;-59
2022/02/11 13:35:50;;;;;;;4.40;0.90;;;20.30;37.00;;;;;;5069323;28;20020;-59
2022/02/11 13:38:30;;;;;;;3.65;1.13;;;21.00;36.20;;;;;;5065814;28;20031;-59
2022/02/11 13:41:07;;;;;;;4.10;1.00;;;22.30;35.00;;;;;;5069742;28;20021;-59
2022/02/11 13:43:49;;;;;;;4.72;1.27;;;23.60;33.90;;;;;;5074708;28;20492;-59
2022/02/11 13:46:37;;;;;;;3.67;0.98;;;24.50;32.50;;;;;;5061945;28;20028;-59
2022/02/11 13:49:12;;;;;;;4.47;1.10;;;25.30;31.80;;;;;;5064531;28;20025;-59
2022/02/11 13:51:39;;;;;;;6.20;1.20;;;25.80;31.90;;;;;;5073267;28;20024;-59
2022/02/11 13:54:13;;;;;;;6.55;1.15;;;26.50;30.90;;;;;;5069702;28;20028;-59
2022/02/11 13:56:41;;;;;;;3.75;1.00;;;27.30;31.00;;;;;;5073625;28;20033;-59
2022/02/11 13:59:24;;;;;;;5.00;1.17;;;27.90;30.80;;;;;;5074388;28;20048;-59
2022/02/11 14:01:49;;;;;;;3.03;1.00;;;28.50;30.70;;;;;;5072838;28;20137;-60
2022/02/11 14:04:22;;;;;;;3.88;1.00;;;28.80;30.00;;;;;;5071385;28;20017;-60
2022/02/11 14:06:53;;;;;;;3.83;1.00;;;29.30;30.10;;;;;;5073602;28;20028;-59
2022/02/11 14:09:32;;;;;;;4.13;0.93;;;29.00;29.90;;;;;;5073090;28;20031;-59
2022/02/11 14:11:59;;;;;;;3.17;0.95;;;27.80;30.10;;;;;;5071745;28;20100;-60
2022/02/11 14:14:25;;;;;;;3.10;0.80;;;26.40;30.50;;;;;;5070063;28;20484;-60
2022/02/11 14:16:51;;;;;;;3.35;0.80;;;25.30;31.30;;;;;;5072796;28;20021;-59
2022/02/11 14:19:24;;;;;;;3.58;1.02;;;24.30;32.10;;;;;;5072407;28;20113;-59
2022/02/11 14:21:53;;;;;;;4.50;0.90;;;23.30;32.80;;;;;;5058941;28;20501;-59
2022/02/11 14:24:20;;;;;;;;;;;22.50;33.70;;;;;;5061631;28;20040;-59
2022/02/11 14:26:46;;;;;;;3.13;0.70;;;21.70;34.70;;;;;;5065797;28;19913;-59
2022/02/11 14:29:12;;;;;;;5.68;1.10;;;21.10;35.30;;;;;;5068860;28;20028;-58
2022/02/11 14:32:02;;;;;;;;;;;;;;;;;;;;;
2022/02/11 14:34:28;;;;;;;3.35;1.05;;;20.50;35.80;;;;;;5057413;28;20020;-59
2022/02/11 14:36:53;;;;;;;5.20;0.93;;;20.10;35.30;;;;;;5061346;28;20043;-62
2022/02/11 14:39:19;;;;;;;2.70;0.77;;;19.70;35.10;;;;;;5051313;28;20029;-61
2022/02/11 14:41:47;;;;;;;4.30;0.80;;;19.30;36.10;;;;;;5069408;28;20052;-61
2022/02/11 14:44:17;;;;;;;5.15;0.85;;;19.00;36.20;;;;;;5055515;28;20028;-61
2022/02/11 14:46:44;;;;;;;1.98;0.70;;;18.70;36.60;;;;;;5070959;28;20024;-61
2022/02/11 14:49:10;;;;;;;4.90;0.85;;;18.40;37.10;;;;;;5071566;28;20115;-61
2022/02/11 14:51:46;;;;;;;2.83;0.68;;;18.00;37.50;;;;;;5085191;28;20096;-61
2022/02/11 14:54:12;;;;;;;4.57;0.77;;;17.70;38.00;;;;;;5037808;28;20745;-61
2022/02/11 14:56:39;;;;;;;5.97;0.90;;;17.30;38.70;;;;;;5026979;28;20035;-61
2022/02/11 14:59:06;;;;;;;4.88;0.70;;;17.00;39.30;;;;;;5028773;28;20040;-61
2022/02/11 15:01:32;;;;;;;4.97;0.70;;;16.70;39.70;;;;;;5066304;28;20035;-61
2022/02/11 15:03:58;;;;;;;2.35;0.70;;;16.40;39.70;;;;;;5068973;28;20021;-61
2022/02/11 15:06:24;;;;;;;2.67;0.63;;;16.10;40.20;;;;;;5074269;28;20396;-60
2022/02/11 15:08:49;;;;;;;4.18;0.93;;;15.90;40.50;;;;;;5069987;28;20024;-60
2022/02/11 15:11:16;;;;;;;3.92;0.70;;;15.70;40.80;;;;;;5071923;28;20029;-60
2022/02/11 15:13:42;;;;;;;4.35;0.77;;;15.50;41.10;;;;;;5073016;28;20027;-61
2022/02/11 15:16:28;;;;;;;;;;;;;;;;;;;;;
2022/02/11 15:18:54;;;;;;;4.05;0.82;;;15.10;41.10;;;;;;5071060;28;20043;-61
2022/02/11 15:21:21;;;;;;;4.00;1.10;;;14.90;41.20;;;;;;5076277;28;20040;-60
2022/02/11 15:23:47;;;;;;;3.60;0.80;;;14.70;41.60;;;;;;5071024;28;20025;-60
2022/02/11 15:26:15;;;;;;;4.25;1.20;;;15.10;42.30;;;;;;5071593;28;20025;-60
2022/02/11 15:28:41;;;;;;;1.98;0.88;;;15.60;41.50;;;;;;5073486;28;20021;-60
2022/02/11 15:31:09;;;;;;;2.50;0.73;;;16.20;41.10;;;;;;5070413;28;20111;-61
2022/02/11 15:33:36;;;;;;;2.55;0.80;;;16.70;40.60;;;;;;5071853;28;20186;-61
2022/02/11 15:36:02;;;;;;;3.60;0.98;;;17.00;40.50;;;;;;5072485;28;20033;-60
2022/02/11 15:38:28;;;;;;;4.05;1.10;;;17.10;40.00;;;;;;5070804;28;20028;-61
2022/02/11 15:40:54;;;;;;;5.00;0.77;;;17.30;40.10;;;;;;5069057;28;20033;-60
2022/02/11 15:43:19;;;;;;;2.80;0.68;;;17.30;40.10;;;;;;5072488;28;20550;-61
2022/02/11 15:45:45;;;;;;;2.15;0.55;;;17.30;39.90;;;;;;5072784;28;20040;-61
2022/02/11 15:48:18;;;;;;;4.10;0.82;;;17.10;40.10;;;;;;5071336;28;20028;-58
2022/02/11 15:50:44;;;;;;;4.80;0.80;;;17.10;40.30;;;;;;5072716;28;20431;-58
2022/02/11 15:53:14;;;;;;;2.42;0.63;;;16.80;40.50;;;;;;5073016;28;20020;-58
2022/02/11 15:55:41;;;;;;;3.28;0.70;;;16.40;40.90;;;;;;5072958;28;20035;-59
2022/02/11 15:58:06;;;;;;;3.90;1.60;;;16.00;41.60;;;;;;5072894;28;20021;-58
2022/02/11 16:00:34;;;;;;;4.63;0.60;;;15.50;42.00;;;;;;5073004;28;20032;-58
2022/02/11 16:06:18;;;;;;;3.03;0.63;;;14.70;42.80;;;;;;5072697;28;20522;-57
2022/02/11 16:08:44;;;;;;;3.28;0.90;;;14.20;43.50;;;;;;5072842;28;20032;-57
2022/02/11 16:11:09;;;;;;;3.08;1.00;;;13.80;43.90;;;;;;5072720;28;20027;-58
2022/02/11 16:13:35;;;;;;;3.58;0.50;;;13.50;44.20;;;;;;5072191;28;20028;-58
2022/02/11 16:16:00;;;;;;;2.88;0.60;;;13.30;44.70;;;;;;5072459;28;20511;-58
2022/02/11 16:18:26;;;;;;;4.97;0.65;;;13.10;45.00;;;;;;5072299;28;20124;-58
2022/02/11 16:20:54;;;;;;;5.40;0.70;;;12.90;45.30;;;;;;5072323;28;20028;-58
2022/02/11 16:23:23;;;;;;;2.80;0.90;;;12.70;45.60;;;;;;5072664;28;20111;-58
2022/02/11 16:25:51;;;;;;;4.55;1.20;;;12.40;45.90;;;;;;5072554;28;20024;-58
2022/02/11 16:28:19;;;;;;;3.70;0.70;;;12.20;46.20;;;;;;5072638;28;20032;-57
2022/02/11 16:30:45;;;;;;;3.40;0.60;;;12.00;46.50;;;;;;5072887;28;20025;-57